sensor_id;sensor_type;location;lat;lon;timestamp;temperature;humidity
2663;DHT22;49701;48.072;7.800;2022-10-16T00:01:18;15.10;99.90
2663;DHT22;49701;48.072;7.800;2022-10-16T00:03:45;15.10;99.90
2663;DHT22;49701;48.072;7.800;2022-10-16T00:06:12;15.10;99.90
2663;DHT22;49701;48.072;7.800;2022-10-16T00:08:39;15.10;99.90
2663;DHT22;49701;48.072;7.800;2022-10-16T00:11:16;15.10;99.90
2663;DHT22;49701;48.072;7.800;2022-10-16T00:13:43;15.10;99.90
2663;DHT22;49701;48.072;7.800;2022-10-16T00:16:10;15.10;99.90
2663;DHT22;49701;48.072;7.800;2022-10-16T00:18:36;15.10;99.90
2663;DHT22;49701;48.072;7.800;2022-10-16T00:21:16;15.10;99.90
2663;DHT22;49701;48.072;7.800;2022-10-16T00:23:42;15.10;99.90
2663;DHT22;49701;48.072;7.800;2022-10-16T00:26:11;15.10;99.90
2663;DHT22;49701;48.072;7.800;2022-10-16T00:28:37;15.10;99.90
2663;DHT22;49701;48.072;7.800;2022-10-16T00:31:04;15.00;99.90
2663;DHT22;49701;48.072;7.800;2022-10-16T00:33:30;15.00;99.90
2663;DHT22;49701;48.072;7.800;2022-10-16T00:35:58;15.00;99.90
2663;DHT22;49701;48.072;7.800;2022-10-16T00:38:24;15.00;99.90
2663;DHT22;49701;48.072;7.800;2022-10-16T00:40:50;15.00;99.90
2663;DHT22;49701;48.072;7.800;2022-10-16T00:43:58;15.00;99.90
2663;DHT22;49701;48.072;7.800;2022-10-16T00:46:44;15.00;99.90
2663;DHT22;49701;48.072;7.800;2022-10-16T00:49:15;15.00;99.90
2663;DHT22;49701;48.072;7.800;2022-10-16T00:51:50;15.00;99.90
2663;DHT22;49701;48.072;7.800;2022-10-16T00:54:26;15.00;99.90
2663;DHT22;49701;48.072;7.800;2022-10-16T00:56:53;15.00;99.90
2663;DHT22;49701;48.072;7.800;2022-10-16T00:59:24;15.00;99.90
2663;DHT22;49701;48.072;7.800;2022-10-16T01:01:51;15.00;99.90
2663;DHT22;49701;48.072;7.800;2022-10-16T01:04:18;15.00;99.90
2663;DHT22;49701;48.072;7.800;2022-10-16T01:07:04;15.00;99.90
2663;DHT22;49701;48.072;7.800;2022-10-16T01:12:49;15.00;99.90
2663;DHT22;49701;48.072;7.800;2022-10-16T01:15:33;15.00;99.90
2663;DHT22;49701;48.072;7.800;2022-10-16T01:18:07;15.10;99.90
2663;DHT22;49701;48.072;7.800;2022-10-16T01:20:42;15.00;99.90
2663;DHT22;49701;48.072;7.800;2022-10-16T01:26:14;15.10;99.90
2663;DHT22;49701;48.072;7.800;2022-10-16T01:29:03;15.10;99.90
2663;DHT22;49701;48.072;7.800;2022-10-16T01:31:35;15.10;99.90
2663;DHT22;49701;48.072;7.800;2022-10-16T01:34:18;15.00;99.90
2663;DHT22;49701;48.072;7.800;2022-10-16T01:36:57;15.00;99.90
2663;DHT22;49701;48.072;7.800;2022-10-16T01:39:32;15.00;99.90
2663;DHT22;49701;48.072;7.800;2022-10-16T01:42:03;15.00;99.90
2663;DHT22;49701;48.072;7.800;2022-10-16T01:44:34;15.00;99.90
2663;DHT22;49701;48.072;7.800;2022-10-16T01:47:01;15.00;99.90
2663;DHT22;49701;48.072;7.800;2022-10-16T01:49:31;15.00;99.90
2663;DHT22;49701;48.072;7.800;2022-10-16T01:51:59;15.00;99.90
2663;DHT22;49701;48.072;7.800;2022-10-16T01:54:29;14.90;99.90
2663;DHT22;49701;48.072;7.800;2022-10-16T01:56:57;14.90;99.90
2663;DHT22;49701;48.072;7.800;2022-10-16T01:59:26;14.90;99.90
2663;DHT22;49701;48.072;7.800;2022-10-16T02:01:59;14.90;99.90
2663;DHT22;49701;48.072;7.800;2022-10-16T02:04:38;14.90;99.90
2663;DHT22;49701;48.072;7.800;2022-10-16T02:07:05;14.90;99.90
2663;DHT22;49701;48.072;7.800;2022-10-16T02:09:33;14.90;99.90
2663;DHT22;49701;48.072;7.800;2022-10-16T02:12:03;14.80;99.90
2663;DHT22;49701;48.072;7.800;2022-10-16T02:14:30;14.80;99.90
2663;DHT22;49701;48.072;7.800;2022-10-16T02:16:56;14.80;99.90
2663;DHT22;49701;48.072;7.800;2022-10-16T02:19:22;14.80;99.90
2663;DHT22;49701;48.072;7.800;2022-10-16T02:21:54;14.70;99.90
2663;DHT22;49701;48.072;7.800;2022-10-16T02:24:32;14.80;99.90
2663;DHT22;49701;48.072;7.800;2022-10-16T02:29:49;14.70;99.90
2663;DHT22;49701;48.072;7.800;2022-10-16T02:32:21;14.80;99.90
2663;DHT22;49701;48.072;7.800;2022-10-16T02:34:49;14.70;99.90
2663;DHT22;49701;48.072;7.800;2022-10-16T02:37:16;14.70;99.90
2663;DHT22;49701;48.072;7.800;2022-10-16T02:39:43;14.70;99.90
2663;DHT22;49701;48.072;7.800;2022-10-16T02:42:12;14.70;99.90
2663;DHT22;49701;48.072;7.800;2022-10-16T02:44:38;14.70;99.90
2663;DHT22;49701;48.072;7.800;2022-10-16T02:47:03;14.70;99.90
2663;DHT22;49701;48.072;7.800;2022-10-16T02:49:29;14.70;99.90
2663;DHT22;49701;48.072;7.800;2022-10-16T02:51:55;14.70;99.90
2663;DHT22;49701;48.072;7.800;2022-10-16T02:54:20;14.70;99.90
2663;DHT22;49701;48.072;7.800;2022-10-16T02:56:46;14.70;99.90
2663;DHT22;49701;48.072;7.800;2022-10-16T02:59:11;14.70;99.90
2663;DHT22;49701;48.072;7.800;2022-10-16T03:01:37;14.70;99.90
2663;DHT22;49701;48.072;7.800;2022-10-16T03:04:03;14.70;99.90
2663;DHT22;49701;48.072;7.800;2022-10-16T03:06:28;14.70;99.90
2663;DHT22;49701;48.072;7.800;2022-10-16T03:08:54;14.70;99.90
2663;DHT22;49701;48.072;7.800;2022-10-16T03:11:19;14.70;99.90
2663;DHT22;49701;48.072;7.800;2022-10-16T03:13:45;14.70;99.90
2663;DHT22;49701;48.072;7.800;2022-10-16T03:16:11;14.60;99.90
2663;DHT22;49701;48.072;7.800;2022-10-16T03:18:37;14.60;99.90
2663;DHT22;49701;48.072;7.800;2022-10-16T03:21:02;14.60;99.90
2663;DHT22;49701;48.072;7.800;2022-10-16T03:23:28;14.60;99.90
2663;DHT22;49701;48.072;7.800;2022-10-16T03:25:54;14.60;99.90
2663;DHT22;49701;48.072;7.800;2022-10-16T03:28:20;14.60;99.90
2663;DHT22;49701;48.072;7.800;2022-10-16T03:30:45;14.60;99.90
2663;DHT22;49701;48.072;7.800;2022-10-16T03:33:11;14.50;99.90
2663;DHT22;49701;48.072;7.800;2022-10-16T03:35:37;14.50;99.90
2663;DHT22;49701;48.072;7.800;2022-10-16T03:38:03;14.50;99.90
2663;DHT22;49701;48.072;7.800;2022-10-16T03:40:29;14.50;99.90
2663;DHT22;49701;48.072;7.800;2022-10-16T03:42:57;14.50;99.90
2663;DHT22;49701;48.072;7.800;2022-10-16T03:45:23;14.50;99.90
2663;DHT22;49701;48.072;7.800;2022-10-16T03:47:49;14.50;99.90
2663;DHT22;49701;48.072;7.800;2022-10-16T03:50:15;14.60;99.90
2663;DHT22;49701;48.072;7.800;2022-10-16T03:52:41;14.60;99.90
2663;DHT22;49701;48.072;7.800;2022-10-16T03:55:07;14.50;99.90
2663;DHT22;49701;48.072;7.800;2022-10-16T03:57:33;14.60;99.90
2663;DHT22;49701;48.072;7.800;2022-10-16T03:59:58;14.60;99.90
2663;DHT22;49701;48.072;7.800;2022-10-16T04:02:24;14.60;99.90
2663;DHT22;49701;48.072;7.800;2022-10-16T04:04:49;14.60;99.90
2663;DHT22;49701;48.072;7.800;2022-10-16T04:07:15;14.60;99.90
2663;DHT22;49701;48.072;7.800;2022-10-16T04:09:41;14.60;99.90
2663;DHT22;49701;48.072;7.800;2022-10-16T04:12:07;14.60;99.90
2663;DHT22;49701;48.072;7.800;2022-10-16T04:14:33;14.60;99.90
2663;DHT22;49701;48.072;7.800;2022-10-16T04:16:58;14.50;99.90
2663;DHT22;49701;48.072;7.800;2022-10-16T04:19:24;14.50;99.90
2663;DHT22;49701;48.072;7.800;2022-10-16T04:21:49;14.60;99.90
2663;DHT22;49701;48.072;7.800;2022-10-16T04:24:15;14.50;99.90
2663;DHT22;49701;48.072;7.800;2022-10-16T04:26:40;14.50;99.90
2663;DHT22;49701;48.072;7.800;2022-10-16T04:29:06;14.50;99.90
2663;DHT22;49701;48.072;7.800;2022-10-16T04:31:32;14.50;99.90
2663;DHT22;49701;48.072;7.800;2022-10-16T04:33:58;14.50;99.90
2663;DHT22;49701;48.072;7.800;2022-10-16T04:36:23;14.50;99.90
2663;DHT22;49701;48.072;7.800;2022-10-16T04:38:49;14.50;99.90
2663;DHT22;49701;48.072;7.800;2022-10-16T04:41:15;14.50;99.90
2663;DHT22;49701;48.072;7.800;2022-10-16T04:43:40;14.50;99.90
2663;DHT22;49701;48.072;7.800;2022-10-16T04:46:06;14.50;99.90
2663;DHT22;49701;48.072;7.800;2022-10-16T04:48:32;14.50;99.90
2663;DHT22;49701;48.072;7.800;2022-10-16T04:50:57;14.50;99.90
2663;DHT22;49701;48.072;7.800;2022-10-16T04:53:23;14.50;99.90
2663;DHT22;49701;48.072;7.800;2022-10-16T04:55:49;14.50;99.90
2663;DHT22;49701;48.072;7.800;2022-10-16T04:58:15;14.50;99.90
2663;DHT22;49701;48.072;7.800;2022-10-16T05:00:40;14.50;99.90
2663;DHT22;49701;48.072;7.800;2022-10-16T05:03:06;14.50;99.90
2663;DHT22;49701;48.072;7.800;2022-10-16T05:05:34;14.50;99.90
2663;DHT22;49701;48.072;7.800;2022-10-16T05:08:00;14.50;99.90
2663;DHT22;49701;48.072;7.800;2022-10-16T05:10:25;14.40;99.90
2663;DHT22;49701;48.072;7.800;2022-10-16T05:12:51;14.50;99.90
2663;DHT22;49701;48.072;7.800;2022-10-16T05:15:17;14.40;99.90
2663;DHT22;49701;48.072;7.800;2022-10-16T05:17:43;14.50;99.90
2663;DHT22;49701;48.072;7.800;2022-10-16T05:20:09;14.50;99.90
2663;DHT22;49701;48.072;7.800;2022-10-16T05:22:35;14.50;99.90
2663;DHT22;49701;48.072;7.800;2022-10-16T05:25:00;14.50;99.90
2663;DHT22;49701;48.072;7.800;2022-10-16T05:27:26;14.60;99.90
2663;DHT22;49701;48.072;7.800;2022-10-16T05:29:52;14.60;99.90
2663;DHT22;49701;48.072;7.800;2022-10-16T05:32:18;14.60;99.90
2663;DHT22;49701;48.072;7.800;2022-10-16T05:34:44;14.60;99.90
2663;DHT22;49701;48.072;7.800;2022-10-16T05:37:10;14.60;99.90
2663;DHT22;49701;48.072;7.800;2022-10-16T05:39:37;14.60;99.90
2663;DHT22;49701;48.072;7.800;2022-10-16T05:42:03;14.70;99.90
2663;DHT22;49701;48.072;7.800;2022-10-16T05:44:29;14.60;99.90
2663;DHT22;49701;48.072;7.800;2022-10-16T05:46:55;14.60;99.90
2663;DHT22;49701;48.072;7.800;2022-10-16T05:49:20;14.60;99.90
2663;DHT22;49701;48.072;7.800;2022-10-16T05:51:46;14.60;99.90
2663;DHT22;49701;48.072;7.800;2022-10-16T05:54:11;14.70;99.90
2663;DHT22;49701;48.072;7.800;2022-10-16T05:56:37;14.60;99.90
2663;DHT22;49701;48.072;7.800;2022-10-16T05:59:03;14.70;99.90
2663;DHT22;49701;48.072;7.800;2022-10-16T06:01:29;14.70;99.90
2663;DHT22;49701;48.072;7.800;2022-10-16T06:03:56;14.70;99.90
2663;DHT22;49701;48.072;7.800;2022-10-16T06:06:22;14.70;99.90
2663;DHT22;49701;48.072;7.800;2022-10-16T06:08:49;14.70;99.90
2663;DHT22;49701;48.072;7.800;2022-10-16T06:11:16;14.70;99.90
2663;DHT22;49701;48.072;7.800;2022-10-16T06:13:41;14.70;99.90
2663;DHT22;49701;48.072;7.800;2022-10-16T06:16:08;14.70;99.90
2663;DHT22;49701;48.072;7.800;2022-10-16T06:18:33;14.70;99.90
2663;DHT22;49701;48.072;7.800;2022-10-16T06:20:59;14.70;99.90
2663;DHT22;49701;48.072;7.800;2022-10-16T06:23:25;14.70;99.90
2663;DHT22;49701;48.072;7.800;2022-10-16T06:25:50;14.70;99.90
2663;DHT22;49701;48.072;7.800;2022-10-16T06:28:16;14.80;99.90
2663;DHT22;49701;48.072;7.800;2022-10-16T06:30:42;14.80;99.90
2663;DHT22;49701;48.072;7.800;2022-10-16T06:33:09;14.80;99.90
2663;DHT22;49701;48.072;7.800;2022-10-16T06:35:35;14.80;99.90
2663;DHT22;49701;48.072;7.800;2022-10-16T06:38:00;14.80;99.90
2663;DHT22;49701;48.072;7.800;2022-10-16T06:40:26;14.80;99.90
2663;DHT22;49701;48.072;7.800;2022-10-16T06:42:54;14.80;99.90
2663;DHT22;49701;48.072;7.800;2022-10-16T06:45:19;14.80;99.90
2663;DHT22;49701;48.072;7.800;2022-10-16T06:47:45;14.80;99.90
2663;DHT22;49701;48.072;7.800;2022-10-16T06:50:10;14.90;99.90
2663;DHT22;49701;48.072;7.800;2022-10-16T06:52:36;14.90;99.90
2663;DHT22;49701;48.072;7.800;2022-10-16T06:55:02;14.90;99.90
2663;DHT22;49701;48.072;7.800;2022-10-16T06:57:28;14.90;99.90
2663;DHT22;49701;48.072;7.800;2022-10-16T06:59:53;14.90;99.90
2663;DHT22;49701;48.072;7.800;2022-10-16T07:02:19;15.00;99.90
2663;DHT22;49701;48.072;7.800;2022-10-16T07:04:44;15.00;99.90
2663;DHT22;49701;48.072;7.800;2022-10-16T07:07:10;15.00;99.90
2663;DHT22;49701;48.072;7.800;2022-10-16T07:09:35;15.00;99.90
2663;DHT22;49701;48.072;7.800;2022-10-16T07:12:01;15.00;99.90
2663;DHT22;49701;48.072;7.800;2022-10-16T07:14:26;15.10;99.90
2663;DHT22;49701;48.072;7.800;2022-10-16T07:16:52;15.10;99.90
2663;DHT22;49701;48.072;7.800;2022-10-16T07:19:18;15.10;99.90
2663;DHT22;49701;48.072;7.800;2022-10-16T07:21:43;15.10;99.90
2663;DHT22;49701;48.072;7.800;2022-10-16T07:24:13;15.20;99.90
2663;DHT22;49701;48.072;7.800;2022-10-16T07:26:39;15.20;99.90
2663;DHT22;49701;48.072;7.800;2022-10-16T07:29:12;15.20;99.90
2663;DHT22;49701;48.072;7.800;2022-10-16T07:31:38;15.20;99.90
2663;DHT22;49701;48.072;7.800;2022-10-16T07:34:05;15.30;99.90
2663;DHT22;49701;48.072;7.800;2022-10-16T07:36:30;15.30;99.90
2663;DHT22;49701;48.072;7.800;2022-10-16T07:38:56;15.30;99.90
2663;DHT22;49701;48.072;7.800;2022-10-16T07:41:21;15.40;99.90
2663;DHT22;49701;48.072;7.800;2022-10-16T07:43:50;15.50;99.90
2663;DHT22;49701;48.072;7.800;2022-10-16T07:46:16;15.50;99.90
2663;DHT22;49701;48.072;7.800;2022-10-16T07:48:42;15.60;99.90
2663;DHT22;49701;48.072;7.800;2022-10-16T07:51:11;15.60;99.90
2663;DHT22;49701;48.072;7.800;2022-10-16T07:53:37;15.60;99.90
2663;DHT22;49701;48.072;7.800;2022-10-16T07:56:03;15.60;99.90
2663;DHT22;49701;48.072;7.800;2022-10-16T07:58:29;15.70;99.90
2663;DHT22;49701;48.072;7.800;2022-10-16T08:00:55;15.70;99.90
2663;DHT22;49701;48.072;7.800;2022-10-16T08:03:21;15.80;99.90
2663;DHT22;49701;48.072;7.800;2022-10-16T08:05:47;15.90;99.90
2663;DHT22;49701;48.072;7.800;2022-10-16T08:08:13;16.00;99.90
2663;DHT22;49701;48.072;7.800;2022-10-16T08:10:38;16.10;99.90
2663;DHT22;49701;48.072;7.800;2022-10-16T08:13:04;16.20;99.90
2663;DHT22;49701;48.072;7.800;2022-10-16T08:15:29;16.30;99.90
2663;DHT22;49701;48.072;7.800;2022-10-16T08:17:58;16.40;99.90
2663;DHT22;49701;48.072;7.800;2022-10-16T08:20:24;16.40;99.90
2663;DHT22;49701;48.072;7.800;2022-10-16T08:22:50;16.50;99.90
2663;DHT22;49701;48.072;7.800;2022-10-16T08:25:15;16.60;99.90
2663;DHT22;49701;48.072;7.800;2022-10-16T08:27:41;16.60;99.90
2663;DHT22;49701;48.072;7.800;2022-10-16T08:30:06;16.70;99.90
2663;DHT22;49701;48.072;7.800;2022-10-16T08:32:32;16.70;99.90
2663;DHT22;49701;48.072;7.800;2022-10-16T08:34:58;16.80;99.90
2663;DHT22;49701;48.072;7.800;2022-10-16T08:37:23;16.80;99.90
2663;DHT22;49701;48.072;7.800;2022-10-16T08:39:48;16.90;99.90
2663;DHT22;49701;48.072;7.800;2022-10-16T08:42:24;16.90;99.90
2663;DHT22;49701;48.072;7.800;2022-10-16T08:47:24;17.00;99.90
2663;DHT22;49701;48.072;7.800;2022-10-16T08:49:55;17.00;99.90
2663;DHT22;49701;48.072;7.800;2022-10-16T08:52:29;17.00;99.90
2663;DHT22;49701;48.072;7.800;2022-10-16T08:54:56;17.10;99.90
2663;DHT22;49701;48.072;7.800;2022-10-16T08:57:22;17.10;99.90
2663;DHT22;49701;48.072;7.800;2022-10-16T08:59:49;17.20;99.90
2663;DHT22;49701;48.072;7.800;2022-10-16T09:13:40;17.40;99.90
2663;DHT22;49701;48.072;7.800;2022-10-16T09:18:22;17.60;99.90
2663;DHT22;49701;48.072;7.800;2022-10-16T09:20:53;17.80;99.90
2663;DHT22;49701;48.072;7.800;2022-10-16T09:23:38;17.90;99.90
2663;DHT22;49701;48.072;7.800;2022-10-16T09:26:04;18.10;99.90
2663;DHT22;49701;48.072;7.800;2022-10-16T09:28:30;18.40;99.90
2663;DHT22;49701;48.072;7.800;2022-10-16T09:30:56;18.90;99.90
2663;DHT22;49701;48.072;7.800;2022-10-16T09:33:25;19.50;99.90
2663;DHT22;49701;48.072;7.800;2022-10-16T09:35:54;20.10;99.90
2663;DHT22;49701;48.072;7.800;2022-10-16T09:38:22;20.60;99.90
2663;DHT22;49701;48.072;7.800;2022-10-16T09:40:47;20.90;99.90
2663;DHT22;49701;48.072;7.800;2022-10-16T09:45:38;21.20;99.90
2663;DHT22;49701;48.072;7.800;2022-10-16T09:48:11;21.40;99.90
2663;DHT22;49701;48.072;7.800;2022-10-16T09:50:36;21.50;99.90
2663;DHT22;49701;48.072;7.800;2022-10-16T09:53:03;21.60;99.90
2663;DHT22;49701;48.072;7.800;2022-10-16T09:55:29;21.70;99.90
2663;DHT22;49701;48.072;7.800;2022-10-16T09:57:54;21.60;99.90
2663;DHT22;49701;48.072;7.800;2022-10-16T10:00:21;21.50;99.90
2663;DHT22;49701;48.072;7.800;2022-10-16T10:02:46;21.50;99.90
2663;DHT22;49701;48.072;7.800;2022-10-16T10:05:20;21.70;99.90
2663;DHT22;49701;48.072;7.800;2022-10-16T10:07:52;21.70;99.90
2663;DHT22;49701;48.072;7.800;2022-10-16T10:10:20;21.80;99.90
2663;DHT22;49701;48.072;7.800;2022-10-16T10:12:46;21.90;99.90
2663;DHT22;49701;48.072;7.800;2022-10-16T10:15:12;21.90;99.90
2663;DHT22;49701;48.072;7.800;2022-10-16T10:17:45;21.90;99.90
2663;DHT22;49701;48.072;7.800;2022-10-16T10:22:55;21.90;99.90
2663;DHT22;49701;48.072;7.800;2022-10-16T10:30:24;22.20;99.90
2663;DHT22;49701;48.072;7.800;2022-10-16T10:35:23;22.40;99.90
2663;DHT22;49701;48.072;7.800;2022-10-16T10:37:56;22.50;99.90
2663;DHT22;49701;48.072;7.800;2022-10-16T10:45:47;22.90;99.90
2663;DHT22;49701;48.072;7.800;2022-10-16T10:50:39;23.10;99.90
2663;DHT22;49701;48.072;7.800;2022-10-16T10:53:10;23.20;99.90
2663;DHT22;49701;48.072;7.800;2022-10-16T10:55:44;23.20;99.90
2663;DHT22;49701;48.072;7.800;2022-10-16T11:01:04;23.20;99.90
2663;DHT22;49701;48.072;7.800;2022-10-16T11:06:02;23.30;99.90
2663;DHT22;49701;48.072;7.800;2022-10-16T11:08:38;23.40;99.90
2663;DHT22;49701;48.072;7.800;2022-10-16T11:11:08;23.40;99.90
2663;DHT22;49701;48.072;7.800;2022-10-16T11:13:43;23.40;99.90
2663;DHT22;49701;48.072;7.800;2022-10-16T11:16:23;23.40;99.90
2663;DHT22;49701;48.072;7.800;2022-10-16T11:21:23;23.60;99.90
2663;DHT22;49701;48.072;7.800;2022-10-16T11:23:57;23.70;99.90
2663;DHT22;49701;48.072;7.800;2022-10-16T11:26:26;23.80;99.90
2663;DHT22;49701;48.072;7.800;2022-10-16T11:28:56;24.00;99.90
2663;DHT22;49701;48.072;7.800;2022-10-16T11:31:24;24.10;99.90
2663;DHT22;49701;48.072;7.800;2022-10-16T11:33:59;24.30;99.90
2663;DHT22;49701;48.072;7.800;2022-10-16T11:36:33;24.50;99.90
2663;DHT22;49701;48.072;7.800;2022-10-16T11:39:03;24.60;99.90
2663;DHT22;49701;48.072;7.800;2022-10-16T11:41:47;24.70;99.90
2663;DHT22;49701;48.072;7.800;2022-10-16T11:44:26;24.90;99.90
2663;DHT22;49701;48.072;7.800;2022-10-16T11:46:58;25.00;99.90
2663;DHT22;49701;48.072;7.800;2022-10-16T11:49:25;25.10;99.90
2663;DHT22;49701;48.072;7.800;2022-10-16T11:51:56;25.30;99.90
2663;DHT22;49701;48.072;7.800;2022-10-16T11:54:28;25.60;99.90
2663;DHT22;49701;48.072;7.800;2022-10-16T11:56:55;26.10;99.90
2663;DHT22;49701;48.072;7.800;2022-10-16T12:00:24;27.00;99.90
2663;DHT22;49701;48.072;7.800;2022-10-16T12:04:50;28.00;99.90
2663;DHT22;49701;48.072;7.800;2022-10-16T12:07:18;28.00;99.90
2663;DHT22;49701;48.072;7.800;2022-10-16T12:09:45;27.90;99.90
2663;DHT22;49701;48.072;7.800;2022-10-16T12:12:23;27.80;99.90
2663;DHT22;49701;48.072;7.800;2022-10-16T12:14:59;27.80;99.90
2663;DHT22;49701;48.072;7.800;2022-10-16T12:17:26;27.70;99.90
2663;DHT22;49701;48.072;7.800;2022-10-16T12:20:18;27.60;99.90
2663;DHT22;49701;48.072;7.800;2022-10-16T12:22:49;27.60;99.90
2663;DHT22;49701;48.072;7.800;2022-10-16T12:27:56;27.60;99.90
2663;DHT22;49701;48.072;7.800;2022-10-16T12:30:22;27.60;99.90
2663;DHT22;49701;48.072;7.800;2022-10-16T12:33:00;27.70;99.90
2663;DHT22;49701;48.072;7.800;2022-10-16T12:35:27;27.80;99.90
2663;DHT22;49701;48.072;7.800;2022-10-16T12:37:54;28.20;99.90
2663;DHT22;49701;48.072;7.800;2022-10-16T12:40:24;28.80;99.90
2663;DHT22;49701;48.072;7.800;2022-10-16T12:42:51;29.10;99.90
2663;DHT22;49701;48.072;7.800;2022-10-16T12:45:24;29.50;99.90
2663;DHT22;49701;48.072;7.800;2022-10-16T12:47:50;29.90;99.90
2663;DHT22;49701;48.072;7.800;2022-10-16T12:50:23;30.20;99.60
2663;DHT22;49701;48.072;7.800;2022-10-16T12:52:49;30.40;98.80
2663;DHT22;49701;48.072;7.800;2022-10-16T12:55:18;30.60;98.10
2663;DHT22;49701;48.072;7.800;2022-10-16T13:00:14;31.10;96.90
2663;DHT22;49701;48.072;7.800;2022-10-16T13:02:58;31.50;95.00
2663;DHT22;49701;48.072;7.800;2022-10-16T13:10:35;32.30;92.10
2663;DHT22;49701;48.072;7.800;2022-10-16T13:13:18;32.10;91.20
2663;DHT22;49701;48.072;7.800;2022-10-16T13:15:51;32.00;91.10
2663;DHT22;49701;48.072;7.800;2022-10-16T13:18:36;31.90;90.10
2663;DHT22;49701;48.072;7.800;2022-10-16T13:23:34;31.90;90.20
2663;DHT22;49701;48.072;7.800;2022-10-16T13:28:31;32.00;87.20
2663;DHT22;49701;48.072;7.800;2022-10-16T13:30:58;31.90;87.60
2663;DHT22;49701;48.072;7.800;2022-10-16T13:33:27;31.80;86.60
2663;DHT22;49701;48.072;7.800;2022-10-16T13:35:56;31.90;86.40
2663;DHT22;49701;48.072;7.800;2022-10-16T13:38:22;32.10;85.20
2663;DHT22;49701;48.072;7.800;2022-10-16T13:43:14;32.20;81.50
2663;DHT22;49701;48.072;7.800;2022-10-16T13:45:40;32.10;81.40
2663;DHT22;49701;48.072;7.800;2022-10-16T13:48:06;32.10;82.20
2663;DHT22;49701;48.072;7.800;2022-10-16T13:50:34;32.30;81.80
2663;DHT22;49701;48.072;7.800;2022-10-16T13:53:06;32.70;80.80
2663;DHT22;49701;48.072;7.800;2022-10-16T13:55:32;33.00;79.20
2663;DHT22;49701;48.072;7.800;2022-10-16T13:58:13;33.10;78.00
2663;DHT22;49701;48.072;7.800;2022-10-16T14:00:39;33.00;78.50
2663;DHT22;49701;48.072;7.800;2022-10-16T14:03:07;33.00;76.40
2663;DHT22;49701;48.072;7.800;2022-10-16T14:05:33;32.70;75.20
2663;DHT22;49701;48.072;7.800;2022-10-16T14:07:58;32.40;75.80
2663;DHT22;49701;48.072;7.800;2022-10-16T14:10:25;32.10;75.60
2663;DHT22;49701;48.072;7.800;2022-10-16T14:13:12;31.80;76.50
2663;DHT22;49701;48.072;7.800;2022-10-16T14:15:40;31.80;77.00
2663;DHT22;49701;48.072;7.800;2022-10-16T14:18:05;31.40;76.50
2663;DHT22;49701;48.072;7.800;2022-10-16T14:20:31;30.90;77.40
2663;DHT22;49701;48.072;7.800;2022-10-16T14:25:28;30.50;78.80
2663;DHT22;49701;48.072;7.800;2022-10-16T14:28:04;30.40;80.00
2663;DHT22;49701;48.072;7.800;2022-10-16T14:30:30;30.30;80.70
2663;DHT22;49701;48.072;7.800;2022-10-16T14:33:00;30.40;80.80
2663;DHT22;49701;48.072;7.800;2022-10-16T14:35:30;30.40;80.60
2663;DHT22;49701;48.072;7.800;2022-10-16T14:37:56;30.40;80.80
2663;DHT22;49701;48.072;7.800;2022-10-16T14:40:25;30.30;80.70
2663;DHT22;49701;48.072;7.800;2022-10-16T14:42:51;30.10;81.60
2663;DHT22;49701;48.072;7.800;2022-10-16T14:45:24;30.00;81.50
2663;DHT22;49701;48.072;7.800;2022-10-16T14:47:54;29.90;80.50
2663;DHT22;49701;48.072;7.800;2022-10-16T14:50:20;29.70;79.00
2663;DHT22;49701;48.072;7.800;2022-10-16T14:52:46;29.60;79.90
2663;DHT22;49701;48.072;7.800;2022-10-16T14:55:12;29.40;81.20
2663;DHT22;49701;48.072;7.800;2022-10-16T14:57:37;29.30;81.10
2663;DHT22;49701;48.072;7.800;2022-10-16T15:00:06;29.20;83.80
2663;DHT22;49701;48.072;7.800;2022-10-16T15:02:34;29.00;86.20
2663;DHT22;49701;48.072;7.800;2022-10-16T15:07:45;28.80;88.90
2663;DHT22;49701;48.072;7.800;2022-10-16T15:10:11;28.60;90.00
2663;DHT22;49701;48.072;7.800;2022-10-16T15:12:37;28.50;90.40
2663;DHT22;49701;48.072;7.800;2022-10-16T15:17:38;28.20;91.10
2663;DHT22;49701;48.072;7.800;2022-10-16T15:20:03;28.10;91.80
2663;DHT22;49701;48.072;7.800;2022-10-16T15:22:29;27.90;92.50
2663;DHT22;49701;48.072;7.800;2022-10-16T15:24:54;27.70;92.70
2663;DHT22;49701;48.072;7.800;2022-10-16T15:27:20;27.50;93.10
2663;DHT22;49701;48.072;7.800;2022-10-16T15:29:45;27.40;93.40
2663;DHT22;49701;48.072;7.800;2022-10-16T15:32:11;27.20;93.70
2663;DHT22;49701;48.072;7.800;2022-10-16T15:34:36;27.00;94.10
2663;DHT22;49701;48.072;7.800;2022-10-16T15:37:03;26.90;94.40
2663;DHT22;49701;48.072;7.800;2022-10-16T15:39:28;26.80;94.80
2663;DHT22;49701;48.072;7.800;2022-10-16T15:41:54;26.60;95.10
2663;DHT22;49701;48.072;7.800;2022-10-16T15:44:20;26.50;95.60
2663;DHT22;49701;48.072;7.800;2022-10-16T15:46:46;26.40;96.00
2663;DHT22;49701;48.072;7.800;2022-10-16T15:49:11;26.30;96.50
2663;DHT22;49701;48.072;7.800;2022-10-16T15:51:37;26.20;97.00
2663;DHT22;49701;48.072;7.800;2022-10-16T15:54:03;26.10;97.60
2663;DHT22;49701;48.072;7.800;2022-10-16T15:56:29;25.90;98.20
2663;DHT22;49701;48.072;7.800;2022-10-16T15:58:55;25.70;98.70
2663;DHT22;49701;48.072;7.800;2022-10-16T16:01:22;25.60;99.40
2663;DHT22;49701;48.072;7.800;2022-10-16T16:03:47;25.40;99.90
2663;DHT22;49701;48.072;7.800;2022-10-16T16:06:17;25.30;99.90
2663;DHT22;49701;48.072;7.800;2022-10-16T16:08:42;25.10;99.90
2663;DHT22;49701;48.072;7.800;2022-10-16T16:11:12;25.00;99.90
2663;DHT22;49701;48.072;7.800;2022-10-16T16:13:37;24.80;99.90
2663;DHT22;49701;48.072;7.800;2022-10-16T16:16:07;24.60;99.90
2663;DHT22;49701;48.072;7.800;2022-10-16T16:18:33;24.40;99.90
2663;DHT22;49701;48.072;7.800;2022-10-16T16:20:58;24.20;99.90
2663;DHT22;49701;48.072;7.800;2022-10-16T16:23:24;24.10;99.90
2663;DHT22;49701;48.072;7.800;2022-10-16T16:26:11;23.90;99.90
2663;DHT22;49701;48.072;7.800;2022-10-16T16:28:37;23.70;99.90
2663;DHT22;49701;48.072;7.800;2022-10-16T16:31:03;23.60;99.90
2663;DHT22;49701;48.072;7.800;2022-10-16T16:33:29;23.30;99.90
2663;DHT22;49701;48.072;7.800;2022-10-16T16:35:56;23.10;99.90
2663;DHT22;49701;48.072;7.800;2022-10-16T16:38:21;23.00;99.90
2663;DHT22;49701;48.072;7.800;2022-10-16T16:40:47;22.80;99.90
2663;DHT22;49701;48.072;7.800;2022-10-16T16:43:12;22.60;99.90
2663;DHT22;49701;48.072;7.800;2022-10-16T16:45:37;22.40;99.90
2663;DHT22;49701;48.072;7.800;2022-10-16T16:48:03;22.30;99.90
2663;DHT22;49701;48.072;7.800;2022-10-16T16:50:34;22.10;99.90
2663;DHT22;49701;48.072;7.800;2022-10-16T16:53:00;21.90;99.90
2663;DHT22;49701;48.072;7.800;2022-10-16T16:55:25;21.70;99.90
2663;DHT22;49701;48.072;7.800;2022-10-16T16:57:51;21.60;99.90
2663;DHT22;49701;48.072;7.800;2022-10-16T17:00:16;21.50;99.90
2663;DHT22;49701;48.072;7.800;2022-10-16T17:02:42;21.30;99.90
2663;DHT22;49701;48.072;7.800;2022-10-16T17:05:08;21.20;99.90
2663;DHT22;49701;48.072;7.800;2022-10-16T17:07:34;21.10;99.90
2663;DHT22;49701;48.072;7.800;2022-10-16T17:10:00;20.90;99.90
2663;DHT22;49701;48.072;7.800;2022-10-16T17:12:26;20.80;99.90